createdAt,value
2023-02-22T00:00:23.811Z,99
2023-02-22T00:10:24.662Z,99
2023-02-22T00:20:25.672Z,99
2023-02-22T00:30:26.472Z,99
2023-02-22T00:40:26.544Z,99
2023-02-22T00:50:27.200Z,99
2023-02-22T01:00:27.796Z,99
2023-02-22T01:20:28.896Z,100
2023-02-22T01:30:29.956Z,100
2023-02-22T01:40:30.464Z,100
2023-02-22T02:00:32.248Z,100
2023-02-22T02:10:32.313Z,100
2023-02-22T02:20:32.586Z,100
2023-02-22T02:30:32.986Z,100
2023-02-22T02:40:33.646Z,100
2023-02-22T03:00:34.920Z,100
2023-02-22T03:20:36.476Z,100
2023-02-22T03:30:36.705Z,100
2023-02-22T03:40:37.566Z,100
2023-02-22T03:50:38.426Z,100
2023-02-22T04:00:38.675Z,100
2023-02-22T04:10:38.965Z,100
2023-02-22T04:20:39.880Z,100
2023-02-22T04:30:40.969Z,100
2023-02-22T04:40:41.135Z,100
2023-02-22T04:50:42.229Z,100
2023-02-22T05:00:42.641Z,100
2023-02-22T05:10:43.357Z,100
2023-02-22T05:20:43.696Z,100
2023-02-22T05:30:44.091Z,100
2023-02-22T05:40:44.439Z,100
2023-02-22T06:00:45.126Z,100
2023-02-22T06:10:45.382Z,100
2023-02-22T06:30:46.860Z,100
2023-02-22T06:40:47.136Z,100
2023-02-22T06:50:47.686Z,100
2023-02-22T07:00:48.284Z,100
2023-02-22T07:10:49.109Z,100
2023-02-22T07:20:49.545Z,100
2023-02-22T07:30:50.118Z,100
2023-02-22T07:40:50.295Z,100
2023-02-22T07:50:50.965Z,100
2023-02-22T08:00:51.410Z,100
2023-02-22T08:10:51.591Z,100
2023-02-22T08:20:51.840Z,100
2023-02-22T08:30:52.131Z,100
2023-02-22T08:40:52.725Z,100
2023-02-22T08:50:53.831Z,100
2023-02-22T09:00:53.965Z,100
2023-02-22T09:10:54.418Z,100
2023-02-22T09:20:54.739Z,100
2023-02-22T09:30:55.720Z,100
2023-02-22T09:40:56.649Z,100
2023-02-22T09:50:57.362Z,100
2023-02-22T10:00:57.456Z,100
2023-02-22T10:10:57.705Z,100
2023-02-22T10:20:58.014Z,100
2023-02-22T10:30:59.242Z,100
2023-02-22T10:40:59.832Z,100
2023-02-22T11:01:01.082Z,100
2023-02-22T11:11:01.564Z,100
2023-02-22T11:21:01.958Z,100
2023-02-22T12:01:03.156Z,100
2023-02-22T12:11:04.166Z,100
2023-02-22T12:21:05.195Z,100
2023-02-22T12:51:08.120Z,99
2023-02-22T13:11:09.673Z,97
2023-02-22T13:21:10.225Z,96
2023-02-22T14:01:13.130Z,90
2023-02-22T14:11:13.878Z,90
2023-02-22T15:01:17.496Z,87
2023-02-22T15:31:19.487Z,84
2023-02-22T15:41:20.009Z,82
2023-02-22T15:51:20.830Z,81
2023-02-22T16:01:21.639Z,76
2023-02-22T16:11:21.388Z,76
2023-02-22T16:21:22.285Z,75
2023-02-22T16:31:23.077Z,76
2023-02-22T16:41:23.312Z,77
2023-02-22T17:21:26.273Z,82
2023-02-22T17:31:26.459Z,82
2023-02-22T17:51:28.369Z,84
2023-02-22T18:01:28.701Z,84
2023-02-22T18:11:29.636Z,85
2023-02-22T18:21:29.952Z,86
2023-02-22T18:31:31.020Z,87
2023-02-22T18:41:31.269Z,87
2023-02-22T18:51:31.639Z,88
2023-02-22T19:01:32.236Z,90
2023-02-22T19:11:33.107Z,90
2023-02-22T19:21:33.867Z,92
2023-02-22T19:31:34.188Z,93
2023-02-22T19:41:34.557Z,93
2023-02-22T19:51:35.316Z,94
2023-02-22T20:31:37.724Z,96
2023-02-22T21:01:40.131Z,97
2023-02-22T21:11:40.761Z,98
2023-02-22T21:21:41.684Z,98
2023-02-22T21:31:42.759Z,98
2023-02-22T21:41:42.760Z,98
2023-02-22T21:51:43.811Z,98
2023-02-22T22:01:44.375Z,98
2023-02-22T22:11:45.391Z,98
2023-02-22T22:21:45.605Z,99
2023-02-22T22:31:46.138Z,99
2023-02-22T22:41:46.353Z,99
2023-02-22T22:51:47.186Z,99
2023-02-22T23:01:47.563Z,99
2023-02-22T23:11:48.363Z,99
2023-02-22T23:21:48.838Z,99
2023-02-22T23:41:49.889Z,99
2023-02-22T23:51:50.379Z,99
